createdAt,value
2022-09-02T00:00:55.866Z,1016.27
2022-09-02T00:01:56.206Z,1016.24
2022-09-02T00:02:56.402Z,1016.26
2022-09-02T00:03:56.546Z,1016.26
2022-09-02T00:04:56.772Z,1016.33
2022-09-02T00:05:56.964Z,1016.28
2022-09-02T00:06:57.202Z,1016.28
2022-09-02T00:07:57.403Z,1016.29
2022-09-02T00:08:57.615Z,1016.28
2022-09-02T00:09:57.820Z,1016.30
2022-09-02T00:10:58.029Z,1016.28
2022-09-02T00:11:58.258Z,1016.30
2022-09-02T00:12:58.461Z,1016.30
2022-09-02T00:13:58.674Z,1016.24
2022-09-02T00:14:58.909Z,1016.23
2022-09-02T00:15:59.118Z,1016.22
2022-09-02T00:16:59.428Z,1016.21
2022-09-02T00:17:59.544Z,1016.24
2022-09-02T00:18:59.754Z,1016.23
2022-09-02T00:19:59.959Z,1016.20
2022-09-02T00:21:00.163Z,1016.21
2022-09-02T00:22:00.373Z,1016.19
2022-09-02T00:23:00.584Z,1016.20
2022-09-02T00:24:00.779Z,1016.17
2022-09-02T00:25:00.986Z,1016.20
2022-09-02T00:26:01.178Z,1016.16
2022-09-02T00:27:01.391Z,1016.19
2022-09-02T00:28:01.593Z,1016.14
2022-09-02T00:29:01.809Z,1016.10
2022-09-02T00:30:01.991Z,1016.11
2022-09-02T00:31:02.205Z,1016.09
2022-09-02T00:32:02.500Z,1016.15
2022-09-02T00:33:02.574Z,1016.16
2022-09-02T00:34:02.777Z,1016.07
2022-09-02T00:35:02.991Z,1016.07
2022-09-02T00:36:03.192Z,1016.08
2022-09-02T00:37:03.399Z,1016.07
2022-09-02T00:38:03.615Z,1016.07
2022-09-02T00:39:03.815Z,1016.07
2022-09-02T00:40:04.066Z,1016.07
2022-09-02T00:41:04.171Z,1016.08
2022-09-02T00:42:04.403Z,1016.07
2022-09-02T00:43:04.608Z,1016.06
2022-09-02T00:44:04.817Z,1016.08
2022-09-02T00:45:05.032Z,1016.03
2022-09-02T00:46:05.295Z,1016.04
2022-09-02T00:47:05.498Z,1016.04
2022-09-02T00:48:05.688Z,1016.04
2022-09-02T00:49:05.893Z,1016.05
2022-09-02T00:50:06.063Z,1016.05
2022-09-02T00:51:06.893Z,1016.03
2022-09-02T00:52:06.511Z,1016.03
2022-09-02T00:53:06.762Z,1016.02
2022-09-02T00:54:06.953Z,1016.03
2022-09-02T00:55:07.169Z,1016.04
2022-09-02T00:56:07.367Z,1016.03
2022-09-02T00:57:07.583Z,1016.03
2022-09-02T00:58:09.404Z,1016.04
2022-09-02T00:59:08.005Z,1016.02
2022-09-02T01:00:08.212Z,1016.02
2022-09-02T01:01:08.570Z,1016.01
2022-09-02T01:02:08.799Z,1016.00
2022-09-02T01:03:08.909Z,1016.03
2022-09-02T01:04:09.111Z,1015.97
2022-09-02T01:05:09.314Z,1016.02
2022-09-02T01:06:09.585Z,1016.00
2022-09-02T01:07:09.821Z,1015.97
2022-09-02T01:08:10.031Z,1015.99
2022-09-02T01:09:10.247Z,1015.99
2022-09-02T01:10:10.607Z,1015.96
2022-09-02T01:11:10.727Z,1015.95
2022-09-02T01:12:10.955Z,1015.92
2022-09-02T01:13:11.167Z,1015.93
2022-09-02T01:14:11.357Z,1015.93
2022-09-02T01:15:12.497Z,1015.93
2022-09-02T01:16:11.859Z,1015.90
2022-09-02T01:17:12.076Z,1015.95
2022-09-02T01:18:12.287Z,1015.93
2022-09-02T01:19:12.489Z,1015.97
2022-09-02T01:20:12.685Z,1015.93
2022-09-02T01:21:12.901Z,1015.94
2022-09-02T01:22:13.103Z,1015.94
2022-09-02T01:23:13.382Z,1015.92
2022-09-02T01:24:13.506Z,1015.93
2022-09-02T01:25:13.722Z,1015.94
2022-09-02T01:26:13.915Z,1015.92
2022-09-02T01:27:14.140Z,1015.90
2022-09-02T01:28:14.363Z,1015.91
2022-09-02T01:29:14.569Z,1015.94
2022-09-02T01:30:14.761Z,1015.91
2022-09-02T01:31:15.029Z,1015.90
2022-09-02T01:32:15.124Z,1015.93
2022-09-02T01:33:15.328Z,1015.87
2022-09-02T01:34:15.498Z,1015.90
2022-09-02T01:35:15.708Z,1015.85
2022-09-02T01:36:15.904Z,1015.86
2022-09-02T01:37:16.151Z,1015.85
2022-09-02T01:38:16.361Z,1015.84
2022-09-02T01:39:16.552Z,1015.82
2022-09-02T01:40:16.911Z,1015.82
2022-09-02T01:41:16.964Z,1015.84
2022-09-02T01:42:17.182Z,1015.84
2022-09-02T01:43:17.445Z,1015.85
2022-09-02T01:44:17.549Z,1015.89
2022-09-02T01:45:17.738Z,1015.87
2022-09-02T01:46:17.975Z,1015.89
2022-09-02T01:47:18.167Z,1015.86
2022-09-02T01:48:21.812Z,1015.85
2022-09-02T01:49:18.593Z,1015.85
2022-09-02T01:50:18.801Z,1015.88
2022-09-02T01:51:18.990Z,1015.84
2022-09-02T01:52:19.203Z,1015.85
2022-09-02T01:53:19.461Z,1015.83
2022-09-02T01:54:19.634Z,1015.84
2022-09-02T01:55:19.833Z,1015.85
2022-09-02T01:56:20.032Z,1015.84
2022-09-02T01:57:20.249Z,1015.84
2022-09-02T01:58:20.449Z,1015.83
2022-09-02T01:59:20.652Z,1015.84
2022-09-02T02:00:20.852Z,1015.83
2022-09-02T02:01:21.115Z,1015.83
2022-09-02T02:02:21.384Z,1015.83
2022-09-02T02:03:21.584Z,1015.83
2022-09-02T02:04:21.714Z,1015.85
2022-09-02T02:05:21.908Z,1015.88
2022-09-02T02:06:22.120Z,1015.86
2022-09-02T02:07:22.387Z,1015.85
2022-09-02T02:08:22.500Z,1015.87
2022-09-02T02:09:22.688Z,1015.88
2022-09-02T02:10:22.900Z,1015.84
2022-09-02T02:11:23.099Z,1015.85
2022-09-02T02:12:23.318Z,1015.87
2022-09-02T02:13:23.666Z,1015.84
2022-09-02T02:14:23.737Z,1015.88
2022-09-02T02:16:02.226Z,1015.84
2022-09-02T02:17:02.348Z,1015.80
2022-09-02T02:18:02.516Z,1015.80
2022-09-02T02:19:02.674Z,1015.79
2022-09-02T02:20:02.818Z,1015.79
2022-09-02T02:21:02.976Z,1015.79
2022-09-02T02:22:03.142Z,1015.77
2022-09-02T02:23:03.309Z,1015.80
2022-09-02T02:24:03.456Z,1015.77
2022-09-02T02:25:03.606Z,1015.78
2022-09-02T02:26:03.784Z,1015.77
2022-09-02T02:27:03.939Z,1015.76
2022-09-02T02:28:04.099Z,1015.78
2022-09-02T02:29:04.285Z,1015.76
2022-09-02T02:30:04.437Z,1015.83
2022-09-02T02:31:04.642Z,1015.77
2022-09-02T02:32:04.784Z,1015.81
2022-09-02T02:33:04.955Z,1015.79
2022-09-02T02:34:05.114Z,1015.81
2022-09-02T02:35:05.259Z,1015.81
2022-09-02T02:36:05.425Z,1015.80
2022-09-02T02:37:05.581Z,1015.79
2022-09-02T02:38:05.759Z,1015.77
2022-09-02T02:39:05.926Z,1015.78
2022-09-02T02:40:06.139Z,1015.76
2022-09-02T02:41:06.317Z,1015.77
2022-09-02T02:42:06.468Z,1015.80
2022-09-02T02:43:06.658Z,1015.76
2022-09-02T02:44:06.837Z,1015.76
2022-09-02T02:45:06.983Z,1015.73
2022-09-02T02:46:07.252Z,1015.73
2022-09-02T02:47:07.296Z,1015.74
2022-09-02T02:48:07.466Z,1015.71
2022-09-02T02:49:07.633Z,1015.71
2022-09-02T02:50:07.782Z,1015.70
2022-09-02T02:51:07.950Z,1015.71
2022-09-02T02:52:08.126Z,1015.71
2022-09-02T02:53:08.302Z,1015.71
2022-09-02T02:54:08.451Z,1015.69
2022-09-02T02:55:08.608Z,1015.72
2022-09-02T02:56:08.761Z,1015.74
2022-09-02T02:57:08.912Z,1015.68
2022-09-02T02:58:09.093Z,1015.71
2022-09-02T02:59:09.251Z,1015.70
2022-09-02T03:00:09.411Z,1015.69
2022-09-02T03:01:09.585Z,1015.70
2022-09-02T03:02:09.849Z,1015.71
2022-09-02T03:03:09.966Z,1015.73
2022-09-02T03:04:10.033Z,1015.71
2022-09-02T03:05:10.180Z,1015.69
2022-09-02T03:06:10.335Z,1015.68
2022-09-02T03:07:10.491Z,1015.72
2022-09-02T03:08:10.669Z,1015.70
2022-09-02T03:09:10.825Z,1015.69
2022-09-02T03:10:10.987Z,1015.75
2022-09-02T03:11:11.161Z,1015.72
2022-09-02T03:12:11.312Z,1015.72
2022-09-02T03:13:11.476Z,1015.71
2022-09-02T03:14:11.619Z,1015.71
2022-09-02T03:15:11.788Z,1015.70
2022-09-02T03:16:11.989Z,1015.69
2022-09-02T03:17:18.606Z,1015.70
2022-09-02T03:18:12.231Z,1015.65
2022-09-02T03:19:12.376Z,1015.68
2022-09-02T03:20:12.539Z,1015.68
2022-09-02T03:21:12.698Z,1015.63
2022-09-02T03:22:12.860Z,1015.63
2022-09-02T03:23:13.039Z,1015.64
2022-09-02T03:24:13.185Z,1015.61
2022-09-02T03:25:13.344Z,1015.60
2022-09-02T03:26:13.496Z,1015.59
2022-09-02T03:27:13.655Z,1015.60
2022-09-02T03:28:13.847Z,1015.61
2022-09-02T03:29:13.997Z,1015.58
2022-09-02T03:30:14.145Z,1015.58
2022-09-02T03:31:14.360Z,1015.59
2022-09-02T03:32:14.843Z,1015.59
2022-09-02T03:33:14.578Z,1015.57
2022-09-02T03:34:14.735Z,1015.57
2022-09-02T03:35:14.885Z,1015.59
2022-09-02T03:36:15.045Z,1015.58
2022-09-02T03:37:15.197Z,1015.59
2022-09-02T03:38:15.354Z,1015.59
2022-09-02T03:39:15.504Z,1015.60
2022-09-02T03:40:15.703Z,1015.58
2022-09-02T03:41:15.865Z,1015.60
2022-09-02T03:42:19.827Z,1015.53
2022-09-02T03:43:16.154Z,1015.55
2022-09-02T03:44:16.347Z,1015.54
2022-09-02T03:45:16.526Z,1015.57
2022-09-02T03:46:16.799Z,1015.53
2022-09-02T03:47:16.895Z,1015.54
2022-09-02T03:48:17.059Z,1015.52
2022-09-02T03:49:17.138Z,1015.55
2022-09-02T03:50:17.329Z,1015.56
2022-09-02T03:51:17.525Z,1015.55
2022-09-02T03:52:17.731Z,1015.56
2022-09-02T03:53:19.605Z,1015.57
2022-09-02T03:54:18.093Z,1015.54
2022-09-02T03:55:18.301Z,1015.54
2022-09-02T03:56:18.387Z,1015.55
2022-09-02T03:57:18.576Z,1015.55
2022-09-02T03:58:18.753Z,1015.54
2022-09-02T03:59:18.912Z,1015.52
2022-09-02T04:00:19.061Z,1015.57
2022-09-02T04:01:19.274Z,1015.56
2022-09-02T04:02:19.505Z,1015.54
2022-09-02T04:03:19.663Z,1015.56
2022-09-02T04:04:22.759Z,1015.57
2022-09-02T04:05:19.860Z,1015.57
2022-09-02T04:06:20.019Z,1015.54
2022-09-02T04:07:20.173Z,1015.55
2022-09-02T04:08:20.340Z,1015.57
2022-09-02T04:09:20.499Z,1015.55
2022-09-02T04:10:20.649Z,1015.54
2022-09-02T04:11:20.810Z,1015.56
2022-09-02T04:12:20.981Z,1015.57
2022-09-02T04:13:21.291Z,1015.57
2022-09-02T04:14:21.296Z,1015.58
2022-09-02T04:15:21.453Z,1015.60
2022-09-02T04:16:21.690Z,1015.59
2022-09-02T04:17:21.907Z,1015.59
2022-09-02T04:18:21.970Z,1015.61
2022-09-02T04:19:22.122Z,1015.62
2022-09-02T04:20:22.289Z,1015.65
2022-09-02T04:21:22.469Z,1015.64
2022-09-02T04:22:22.619Z,1015.62
2022-09-02T04:23:22.965Z,1015.64
2022-09-02T04:24:22.919Z,1015.63
2022-09-02T04:25:27.660Z,1015.64
2022-09-02T04:26:23.215Z,1015.65
2022-09-02T04:27:23.377Z,1015.65
2022-09-02T04:28:23.572Z,1015.68
2022-09-02T04:29:23.730Z,1015.64
2022-09-02T04:30:23.886Z,1015.66
2022-09-02T04:31:24.110Z,1015.65
2022-09-02T04:32:24.247Z,1015.66
2022-09-02T04:33:24.422Z,1015.67
2022-09-02T04:34:24.633Z,1015.66
2022-09-02T04:35:24.778Z,1015.60
2022-09-02T04:36:24.936Z,1015.63
2022-09-02T04:37:25.170Z,1015.66
2022-09-02T04:38:25.335Z,1015.66
2022-09-02T04:39:25.484Z,1015.64
2022-09-02T04:40:25.684Z,1015.63
2022-09-02T04:41:25.814Z,1015.63
2022-09-02T04:43:18.710Z,1015.61
2022-09-02T04:44:18.803Z,1015.59
2022-09-02T04:45:18.973Z,1015.64
2022-09-02T04:46:19.150Z,1015.66
2022-09-02T04:47:20.285Z,1015.61
2022-09-02T04:48:19.441Z,1015.65
2022-09-02T04:49:19.742Z,1015.66
2022-09-02T04:50:19.841Z,1015.65
2022-09-02T04:51:20.550Z,1015.65
2022-09-02T04:52:20.378Z,1015.63
2022-09-02T04:53:20.493Z,1015.62
2022-09-02T04:54:20.533Z,1015.61
2022-09-02T04:55:20.704Z,1015.62
2022-09-02T04:56:20.932Z,1015.65
2022-09-02T04:57:21.028Z,1015.62
2022-09-02T04:58:21.220Z,1015.65
2022-09-02T04:59:21.395Z,1015.66
2022-09-02T05:00:21.552Z,1015.68
2022-09-02T05:01:21.761Z,1015.66
2022-09-02T05:02:22.004Z,1015.67
2022-09-02T05:03:22.140Z,1015.67
2022-09-02T05:04:22.219Z,1015.71
2022-09-02T05:05:22.469Z,1015.75
2022-09-02T05:06:22.519Z,1015.73
2022-09-02T05:07:22.684Z,1015.77
2022-09-02T05:08:22.880Z,1015.76
2022-09-02T05:09:23.051Z,1015.69
2022-09-02T05:10:23.249Z,1015.71
2022-09-02T05:11:24.007Z,1015.72
2022-09-02T05:12:23.631Z,1015.70
2022-09-02T05:13:23.952Z,1015.69
2022-09-02T05:14:23.989Z,1015.72
2022-09-02T05:15:24.167Z,1015.71
2022-09-02T05:16:24.378Z,1015.75
2022-09-02T05:17:24.567Z,1015.74
2022-09-02T05:18:24.719Z,1015.77
2022-09-02T05:19:24.878Z,1015.78
2022-09-02T05:20:25.087Z,1015.79
2022-09-02T05:21:25.262Z,1015.84
2022-09-02T05:22:25.435Z,1015.79
2022-09-02T05:23:25.625Z,1015.80
2022-09-02T05:24:26.832Z,1015.84
2022-09-02T05:25:25.976Z,1015.82
2022-09-02T05:26:26.177Z,1015.80
2022-09-02T05:27:26.847Z,1015.80
2022-09-02T05:28:26.517Z,1015.81
2022-09-02T05:29:26.686Z,1015.78
2022-09-02T05:30:26.845Z,1015.76
2022-09-02T05:31:27.088Z,1015.75
2022-09-02T05:32:27.128Z,1015.76
2022-09-02T05:33:27.276Z,1015.79
2022-09-02T05:34:27.433Z,1015.77
2022-09-02T05:35:27.590Z,1015.77
2022-09-02T05:36:27.894Z,1015.80
2022-09-02T05:37:27.946Z,1015.77
2022-09-02T05:38:28.105Z,1015.80
2022-09-02T05:39:28.265Z,1015.84
2022-09-02T05:40:28.968Z,1015.81
2022-09-02T05:41:28.572Z,1015.81
2022-09-02T05:42:28.741Z,1015.82
2022-09-02T05:43:28.918Z,1015.82
2022-09-02T05:44:29.054Z,1015.83
2022-09-02T05:45:29.206Z,1015.80
2022-09-02T05:46:29.467Z,1015.80
2022-09-02T05:47:29.661Z,1015.80
2022-09-02T05:48:29.743Z,1015.76
2022-09-02T05:49:29.912Z,1015.83
2022-09-02T05:50:30.080Z,1015.79
2022-09-02T05:51:30.183Z,1015.78
2022-09-02T05:52:30.343Z,1015.77
2022-09-02T05:53:30.512Z,1015.77
2022-09-02T05:54:30.691Z,1015.74
2022-09-02T05:55:30.842Z,1015.78
2022-09-02T05:56:31.050Z,1015.77
2022-09-02T05:57:31.228Z,1015.81
2022-09-02T05:58:31.387Z,1015.79
2022-09-02T05:59:31.601Z,1015.78
2022-09-02T06:00:31.764Z,1015.79
2022-09-02T06:01:31.993Z,1015.84
2022-09-02T06:02:32.213Z,1015.80
2022-09-02T06:03:32.273Z,1015.78
2022-09-02T06:04:32.546Z,1015.81
2022-09-02T06:05:32.675Z,1015.77
2022-09-02T06:06:32.746Z,1015.80
2022-09-02T06:07:32.925Z,1015.78
2022-09-02T06:08:33.127Z,1015.78
2022-09-02T06:09:33.346Z,1015.78
2022-09-02T06:10:33.424Z,1015.80
2022-09-02T06:11:33.635Z,1015.80
2022-09-02T06:12:33.677Z,1015.84
2022-09-02T06:13:33.831Z,1015.78
2022-09-02T06:14:34.062Z,1015.76
2022-09-02T06:15:34.282Z,1015.78
2022-09-02T06:16:34.493Z,1015.78
2022-09-02T06:17:34.578Z,1015.80
2022-09-02T06:18:34.989Z,1015.78
2022-09-02T06:19:34.887Z,1015.80
2022-09-02T06:20:35.065Z,1015.79
2022-09-02T06:21:35.251Z,1015.80
2022-09-02T06:22:35.415Z,1015.72
2022-09-02T06:23:35.591Z,1015.76
2022-09-02T06:24:35.762Z,1015.78
2022-09-02T06:25:35.919Z,1015.79
2022-09-02T06:26:36.090Z,1015.76
2022-09-02T06:27:36.286Z,1015.76
2022-09-02T06:28:36.471Z,1015.77
2022-09-02T06:29:36.632Z,1015.82
2022-09-02T06:30:36.868Z,1015.80
2022-09-02T06:31:36.908Z,1015.80
2022-09-02T06:32:37.069Z,1015.82
2022-09-02T06:33:37.240Z,1015.78
2022-09-02T06:34:37.595Z,1015.77
2022-09-02T06:35:37.550Z,1015.78
2022-09-02T06:36:37.759Z,1015.77
2022-09-02T06:37:37.936Z,1015.78
2022-09-02T06:38:40.562Z,1015.80
2022-09-02T06:39:38.246Z,1015.78
2022-09-02T06:40:38.495Z,1015.76
2022-09-02T06:41:38.578Z,1015.78
2022-09-02T06:42:38.707Z,1015.77
2022-09-02T06:43:42.773Z,1015.78
2022-09-02T06:44:38.974Z,1015.81
2022-09-02T06:45:39.119Z,1015.83
2022-09-02T06:46:39.348Z,1015.81
2022-09-02T06:47:39.430Z,1015.80
2022-09-02T06:48:39.569Z,1015.83
2022-09-02T06:49:39.728Z,1015.78
2022-09-02T06:50:39.878Z,1015.76
2022-09-02T06:51:40.050Z,1015.76
2022-09-02T06:52:40.205Z,1015.77
2022-09-02T06:53:40.348Z,1015.76
2022-09-02T06:54:40.495Z,1015.77
2022-09-02T06:55:40.641Z,1015.73
2022-09-02T06:56:40.798Z,1015.76
2022-09-02T06:57:41.058Z,1015.74
2022-09-02T06:58:41.121Z,1015.72
2022-09-02T06:59:41.265Z,1015.72
2022-09-02T07:00:41.413Z,1015.70
2022-09-02T07:01:41.675Z,1015.74
2022-09-02T07:02:41.687Z,1015.72
2022-09-02T07:03:41.830Z,1015.70
2022-09-02T07:04:41.975Z,1015.73
2022-09-02T07:05:42.125Z,1015.75
2022-09-02T07:06:42.315Z,1015.76
2022-09-02T07:07:42.468Z,1015.75
2022-09-02T07:08:42.601Z,1015.75
2022-09-02T07:09:42.742Z,1015.71
2022-09-02T07:10:42.884Z,1015.77
2022-09-02T07:11:43.091Z,1015.73
2022-09-02T07:12:44.418Z,1015.79
2022-09-02T07:13:43.253Z,1015.80
2022-09-02T07:14:43.400Z,1015.80
2022-09-02T07:15:43.665Z,1015.82
2022-09-02T07:16:43.760Z,1015.84
2022-09-02T07:17:43.899Z,1015.79
2022-09-02T07:18:44.040Z,1015.73
2022-09-02T07:19:44.101Z,1015.77
2022-09-02T07:20:44.227Z,1015.78
2022-09-02T07:21:44.405Z,1015.77
2022-09-02T07:22:44.470Z,1015.77
2022-09-02T07:23:44.603Z,1015.81
2022-09-02T07:24:44.726Z,1015.83
2022-09-02T07:25:44.856Z,1015.76
2022-09-02T07:26:45.019Z,1015.79
2022-09-02T07:27:45.035Z,1015.79
2022-09-02T07:28:45.216Z,1015.81
2022-09-02T07:29:45.326Z,1015.75
2022-09-02T07:30:45.427Z,1015.77
2022-09-02T07:31:45.457Z,1015.77
2022-09-02T07:32:45.554Z,1015.78
2022-09-02T07:33:45.665Z,1015.79
2022-09-02T07:34:45.722Z,1015.78
2022-09-02T07:35:45.953Z,1015.80
2022-09-02T07:36:46.226Z,1015.77
2022-09-02T07:37:46.015Z,1015.78
2022-09-02T07:38:46.250Z,1015.86
2022-09-02T07:39:46.260Z,1015.82
2022-09-02T07:40:46.389Z,1015.76
2022-09-02T07:41:46.532Z,1015.80
2022-09-02T07:42:46.621Z,1015.82
2022-09-02T07:43:49.657Z,1015.81
2022-09-02T07:44:47.637Z,1015.83
2022-09-02T07:45:46.758Z,1015.82
2022-09-02T07:46:47.007Z,1015.81
2022-09-02T07:47:46.895Z,1015.83
2022-09-02T07:48:46.997Z,1015.78
2022-09-02T07:50:48.134Z,1015.84
2022-09-02T07:51:47.245Z,1015.84
2022-09-02T07:52:47.347Z,1015.82
2022-09-02T07:53:47.437Z,1015.78
2022-09-02T07:54:47.524Z,1015.89
2022-09-02T07:55:47.843Z,1015.85
2022-09-02T07:56:47.707Z,1015.88
2022-09-02T07:57:47.818Z,1015.86
2022-09-02T07:58:47.935Z,1015.91
2022-09-02T07:59:48.084Z,1015.81
2022-09-02T08:00:48.180Z,1015.81
2022-09-02T08:01:48.209Z,1015.81
2022-09-02T08:02:48.406Z,1015.77
2022-09-02T08:03:48.356Z,1015.81
2022-09-02T08:04:48.482Z,1015.83
2022-09-02T08:05:48.583Z,1015.83
2022-09-02T08:06:48.755Z,1015.83
2022-09-02T08:07:48.768Z,1015.81
2022-09-02T08:08:48.883Z,1015.76
2022-09-02T08:09:48.974Z,1015.82
2022-09-02T08:10:49.191Z,1015.79
2022-09-02T08:11:50.269Z,1015.81
2022-09-02T08:12:49.275Z,1015.77
2022-09-02T08:13:49.925Z,1015.78
2022-09-02T08:14:50.063Z,1015.73
2022-09-02T08:15:50.869Z,1015.76
2022-09-02T08:16:49.678Z,1015.78
2022-09-02T08:17:51.154Z,1015.76
2022-09-02T08:18:49.653Z,1015.78
2022-09-02T08:19:49.735Z,1015.77
2022-09-02T08:20:49.819Z,1015.74
2022-09-02T08:21:49.917Z,1015.80
2022-09-02T08:22:59.266Z,1015.79
2022-09-02T08:23:51.044Z,1015.77
2022-09-02T08:24:50.119Z,1015.75
2022-09-02T08:25:50.197Z,1015.68
2022-09-02T08:26:50.296Z,1015.72
2022-09-02T08:27:50.421Z,1015.79
2022-09-02T08:28:50.454Z,1015.76
2022-09-02T08:29:50.556Z,1015.76
2022-09-02T08:30:50.647Z,1015.75
2022-09-02T08:31:53.515Z,1015.79
2022-09-02T08:32:50.727Z,1015.79
2022-09-02T08:33:50.988Z,1015.80
2022-09-02T08:34:50.812Z,1015.81
2022-09-02T08:35:50.878Z,1015.79
2022-09-02T08:36:57.042Z,1015.76
2022-09-02T08:37:51.974Z,1015.81
2022-09-02T08:38:51.067Z,1015.79
2022-09-02T08:39:51.148Z,1015.74
2022-09-02T08:40:51.317Z,1015.72
2022-09-02T08:41:51.283Z,1015.71
2022-09-02T08:42:51.920Z,1015.69
2022-09-02T08:43:51.269Z,1015.69
2022-09-02T08:44:51.338Z,1015.70
2022-09-02T08:45:51.435Z,1015.73
2022-09-02T08:46:51.449Z,1015.71
2022-09-02T08:47:51.398Z,1015.69
2022-09-02T08:48:51.465Z,1015.66
2022-09-02T08:49:51.521Z,1015.74
2022-09-02T08:50:51.614Z,1015.72
2022-09-02T08:51:53.351Z,1015.74
2022-09-02T08:52:51.739Z,1015.69
2022-09-02T08:53:51.819Z,1015.69
2022-09-02T08:54:51.880Z,1015.71
2022-09-02T08:55:51.930Z,1015.66
2022-09-02T08:56:51.997Z,1015.73
2022-09-02T08:57:52.054Z,1015.71
2022-09-02T08:58:52.019Z,1015.75
2022-09-02T08:59:53.196Z,1015.74
2022-09-02T09:00:52.157Z,1015.78
2022-09-02T09:01:52.142Z,1015.75
2022-09-02T09:02:52.214Z,1015.67
2022-09-02T09:03:52.124Z,1015.71
2022-09-02T09:04:52.155Z,1015.77
2022-09-02T09:05:52.202Z,1015.73
2022-09-02T09:06:52.300Z,1015.72
2022-09-02T09:07:52.244Z,1015.74
2022-09-02T09:08:52.282Z,1015.67
2022-09-02T09:09:52.314Z,1015.66
2022-09-02T09:10:52.355Z,1015.62
2022-09-02T09:11:52.439Z,1015.64
2022-09-02T09:12:52.355Z,1015.62
2022-09-02T09:13:52.392Z,1015.58
2022-09-02T09:14:52.452Z,1015.60
2022-09-02T09:15:52.562Z,1015.51
2022-09-02T09:16:52.529Z,1015.50
2022-09-02T09:17:52.483Z,1015.42
2022-09-02T09:18:52.524Z,1015.41
2022-09-02T09:19:52.572Z,1015.42
2022-09-02T09:20:52.614Z,1015.42
2022-09-02T09:21:52.653Z,1015.41
2022-09-02T09:22:52.688Z,1015.40
2022-09-02T09:23:52.733Z,1015.41
2022-09-02T09:24:52.771Z,1015.38
2022-09-02T09:25:52.812Z,1015.35
2022-09-02T09:26:52.867Z,1015.35
2022-09-02T09:27:52.882Z,1015.35
2022-09-02T09:28:52.926Z,1015.36
2022-09-02T09:29:52.964Z,1015.38
2022-09-02T09:30:52.986Z,1015.34
2022-09-02T09:31:53.115Z,1015.30
2022-09-02T09:32:53.012Z,1015.30
2022-09-02T09:33:53.054Z,1015.30
2022-09-02T09:34:53.088Z,1015.29
2022-09-02T09:35:53.139Z,1015.29
2022-09-02T09:36:53.051Z,1015.31
2022-09-02T09:37:53.087Z,1015.29
2022-09-02T09:38:53.166Z,1015.26
2022-09-02T09:39:53.054Z,1015.23
2022-09-02T09:40:53.099Z,1015.24
2022-09-02T09:41:53.151Z,1015.23
2022-09-02T09:42:53.115Z,1015.23
2022-09-02T09:43:53.043Z,1015.25
2022-09-02T09:44:53.061Z,1015.26
2022-09-02T09:45:53.159Z,1015.25
2022-09-02T09:46:53.106Z,1015.23
2022-09-02T09:47:53.136Z,1015.13
2022-09-02T09:48:54.105Z,1015.26
2022-09-02T09:49:53.129Z,1015.23
2022-09-02T09:50:53.130Z,1015.13
2022-09-02T09:51:53.137Z,1015.15
2022-09-02T09:52:53.175Z,1015.18
2022-09-02T09:53:53.072Z,1015.12
2022-09-02T09:54:53.090Z,1015.13
2022-09-02T09:55:53.116Z,1015.12
2022-09-02T09:56:53.152Z,1015.12
2022-09-02T09:57:53.129Z,1015.07
2022-09-02T09:58:53.148Z,1015.16
2022-09-02T09:59:53.156Z,1015.12
2022-09-02T10:00:53.214Z,1015.13
2022-09-02T10:01:53.137Z,1015.14
2022-09-02T10:02:53.064Z,1015.09
2022-09-02T10:03:52.984Z,1015.09
2022-09-02T10:04:52.995Z,1015.04
2022-09-02T10:05:53.018Z,1015.05
2022-09-02T10:06:53.038Z,1015.08
2022-09-02T10:07:53.045Z,1015.09
2022-09-02T10:08:53.069Z,1015.04
2022-09-02T10:09:52.956Z,1014.98
2022-09-02T10:10:52.974Z,1015.00
2022-09-02T10:11:53.007Z,1015.04
2022-09-02T10:12:53.044Z,1015.01
2022-09-02T10:13:52.943Z,1015.08
2022-09-02T10:14:52.946Z,1015.05
2022-09-02T10:15:52.967Z,1015.03
2022-09-02T10:16:53.035Z,1014.99
2022-09-02T10:17:52.913Z,1014.97
2022-09-02T10:18:52.929Z,1015.00
2022-09-02T10:19:52.966Z,1014.84
2022-09-02T10:21:53.829Z,1014.88
2022-09-02T10:23:00.010Z,1014.96
2022-09-02T10:23:53.838Z,1014.92
2022-09-02T10:24:52.774Z,1014.89
2022-09-02T10:25:52.811Z,1014.89
2022-09-02T10:26:52.850Z,1014.98
2022-09-02T10:27:52.892Z,1014.99
2022-09-02T10:28:52.955Z,1014.84
2022-09-02T10:29:52.990Z,1014.82
2022-09-02T10:30:53.056Z,1014.79
2022-09-02T10:31:53.058Z,1015.01
2022-09-02T10:32:52.999Z,1014.97
2022-09-02T10:33:53.059Z,1014.87
2022-09-02T10:34:53.106Z,1015.01
2022-09-02T10:35:53.149Z,1015.00
2022-09-02T10:36:53.181Z,1014.77
2022-09-02T10:37:53.147Z,1014.68
2022-09-02T10:38:53.201Z,1014.67
2022-09-02T10:39:53.249Z,1014.75
2022-09-02T10:40:53.385Z,1014.70
2022-09-02T10:41:53.271Z,1014.75
2022-09-02T10:42:53.333Z,1014.77
2022-09-02T10:43:57.188Z,1014.78
2022-09-02T10:44:55.730Z,1014.73
2022-09-02T10:45:54.512Z,1015.00
2022-09-02T10:46:53.590Z,1015.06
2022-09-02T10:47:53.663Z,1014.98
2022-09-02T10:48:53.733Z,1014.88
2022-09-02T10:49:53.796Z,1014.76
2022-09-02T10:50:53.871Z,1014.78
2022-09-02T10:51:54.098Z,1014.74
2022-09-02T10:52:53.971Z,1014.75
2022-09-02T10:53:54.038Z,1014.80
2022-09-02T10:54:54.974Z,1014.98
2022-09-02T10:55:54.171Z,1014.94
2022-09-02T10:56:54.237Z,1014.94
2022-09-02T10:57:54.317Z,1014.98
2022-09-02T10:58:54.442Z,1014.96
2022-09-02T10:59:54.381Z,1014.93
2022-09-02T11:00:54.529Z,1014.97
2022-09-02T11:01:54.476Z,1014.96
2022-09-02T11:02:54.525Z,1014.91
2022-09-02T11:03:54.589Z,1014.95
2022-09-02T11:04:55.000Z,1014.92
2022-09-02T11:05:54.487Z,1014.91
2022-09-02T11:07:03.269Z,1014.87
2022-09-02T11:07:55.527Z,1014.86
2022-09-02T11:08:54.433Z,1014.84
2022-09-02T11:09:54.446Z,1014.82
2022-09-02T11:10:54.475Z,1014.79
2022-09-02T11:11:57.050Z,1014.87
2022-09-02T11:12:54.535Z,1014.76
2022-09-02T11:13:54.545Z,1014.71
2022-09-02T11:14:54.502Z,1014.71
2022-09-02T11:15:54.620Z,1014.62
2022-09-02T11:16:54.540Z,1014.67
2022-09-02T11:17:54.536Z,1014.65
2022-09-02T11:18:54.523Z,1014.62
2022-09-02T11:19:54.550Z,1014.61
2022-09-02T11:20:54.691Z,1014.60
2022-09-02T11:21:54.501Z,1014.52
2022-09-02T11:22:54.607Z,1014.49
2022-09-02T11:23:54.498Z,1014.25
2022-09-02T11:24:54.510Z,1014.30
2022-09-02T11:25:54.506Z,1014.26
2022-09-02T11:26:54.520Z,1014.32
2022-09-02T11:27:54.562Z,1014.29
2022-09-02T11:28:54.553Z,1014.34
2022-09-02T11:29:54.584Z,1014.33
2022-09-02T11:30:54.641Z,1014.37
2022-09-02T11:31:54.661Z,1014.40
2022-09-02T11:32:54.711Z,1014.30
2022-09-02T11:33:54.773Z,1014.30
2022-09-02T11:34:54.817Z,1014.34
2022-09-02T11:35:54.882Z,1014.35
2022-09-02T11:36:54.963Z,1014.37
2022-09-02T11:37:55.031Z,1014.34
2022-09-02T11:38:55.104Z,1014.34
2022-09-02T11:40:11.173Z,1014.34
2022-09-02T11:41:56.218Z,1014.40
2022-09-02T11:42:55.282Z,1014.37
2022-09-02T11:44:55.387Z,1014.34
2022-09-02T11:45:55.520Z,1014.38
2022-09-02T11:46:55.541Z,1014.40
2022-09-02T11:47:55.597Z,1014.42
2022-09-02T11:48:55.698Z,1014.41
2022-09-02T11:49:55.803Z,1014.42
2022-09-02T11:50:55.930Z,1014.38
2022-09-02T11:51:56.034Z,1014.38
2022-09-02T11:52:56.136Z,1014.38
2022-09-02T11:53:56.352Z,1014.44
2022-09-02T11:54:59.458Z,1014.64
2022-09-02T11:55:57.327Z,1014.57
2022-09-02T11:56:56.413Z,1014.56
2022-09-02T11:57:56.498Z,1014.50
2022-09-02T11:58:56.511Z,1014.44
2022-09-02T11:59:56.582Z,1014.45
2022-09-02T12:00:56.648Z,1014.35
2022-09-02T12:01:56.715Z,1014.35
2022-09-02T12:02:56.738Z,1014.33
2022-09-02T12:05:00.250Z,1014.31
2022-09-02T12:05:56.883Z,1014.33
2022-09-02T12:06:56.874Z,1014.31
2022-09-02T12:07:56.810Z,1014.26
2022-09-02T12:08:56.829Z,1014.28
2022-09-02T12:09:56.950Z,1014.37
2022-09-02T12:10:56.849Z,1014.28
2022-09-02T12:11:56.883Z,1014.10
2022-09-02T12:12:56.909Z,1014.08
2022-09-02T12:13:56.922Z,1014.24